sensor_id;sensor_type;location;lat;lon;timestamp;pressure;altitude;pressure_sealevel;temperature
67758;BMP180;54562;47.620;18.786;2022-09-13T00:01:03;98396.60;;;11.00
67758;BMP180;54562;47.620;18.786;2022-09-13T00:04:11;98402.20;;;11.00
67758;BMP180;54562;47.620;18.786;2022-09-13T00:07:19;98406.20;;;11.00
67758;BMP180;54562;47.620;18.786;2022-09-13T00:10:28;98400.20;;;11.00
67758;BMP180;54562;47.620;18.786;2022-09-13T00:13:36;98401.20;;;11.00
67758;BMP180;54562;47.620;18.786;2022-09-13T00:16:45;98402.80;;;11.00
67758;BMP180;54562;47.620;18.786;2022-09-13T00:19:52;98401.60;;;11.02
67758;BMP180;54562;47.620;18.786;2022-09-13T00:23:00;98404.00;;;11.00
67758;BMP180;54562;47.620;18.786;2022-09-13T00:26:12;98403.20;;;11.00
67758;BMP180;54562;47.620;18.786;2022-09-13T00:29:20;98397.20;;;10.98
67758;BMP180;54562;47.620;18.786;2022-09-13T00:32:28;98400.20;;;10.90
67758;BMP180;54562;47.620;18.786;2022-09-13T00:35:36;98402.60;;;10.90
67758;BMP180;54562;47.620;18.786;2022-09-13T00:38:44;98399.20;;;10.90
67758;BMP180;54562;47.620;18.786;2022-09-13T00:41:52;98398.00;;;10.80
67758;BMP180;54562;47.620;18.786;2022-09-13T00:45:07;98398.80;;;10.80
67758;BMP180;54562;47.620;18.786;2022-09-13T00:48:24;98401.00;;;10.80
67758;BMP180;54562;47.620;18.786;2022-09-13T00:51:32;98395.40;;;10.80
67758;BMP180;54562;47.620;18.786;2022-09-13T00:54:48;98398.80;;;10.80
67758;BMP180;54562;47.620;18.786;2022-09-13T00:58:07;98400.60;;;10.78
67758;BMP180;54562;47.620;18.786;2022-09-13T01:01:22;98398.60;;;10.70
67758;BMP180;54562;47.620;18.786;2022-09-13T01:04:35;98393.00;;;10.70
67758;BMP180;54562;47.620;18.786;2022-09-13T01:07:44;98390.60;;;10.68
67758;BMP180;54562;47.620;18.786;2022-09-13T01:10:54;98390.80;;;10.64
67758;BMP180;54562;47.620;18.786;2022-09-13T01:14:04;98389.00;;;10.60
67758;BMP180;54562;47.620;18.786;2022-09-13T01:17:13;98388.60;;;10.60
67758;BMP180;54562;47.620;18.786;2022-09-13T01:20:24;98384.20;;;10.60
67758;BMP180;54562;47.620;18.786;2022-09-13T01:24:15;98382.80;;;10.60
67758;BMP180;54562;47.620;18.786;2022-09-13T01:27:38;98391.00;;;10.60
67758;BMP180;54562;47.620;18.786;2022-09-13T01:30:54;98385.40;;;10.60
67758;BMP180;54562;47.620;18.786;2022-09-13T01:34:19;98390.60;;;10.60
67758;BMP180;54562;47.620;18.786;2022-09-13T01:37:51;98388.60;;;10.50
67758;BMP180;54562;47.620;18.786;2022-09-13T01:41:17;98382.80;;;10.50
67758;BMP180;54562;47.620;18.786;2022-09-13T01:44:54;98379.40;;;10.50
67758;BMP180;54562;47.620;18.786;2022-09-13T01:48:14;98377.20;;;10.50
67758;BMP180;54562;47.620;18.786;2022-09-13T01:51:33;98373.00;;;10.50
67758;BMP180;54562;47.620;18.786;2022-09-13T01:54:56;98370.80;;;10.58
67758;BMP180;54562;47.620;18.786;2022-09-13T01:58:18;98364.80;;;10.54
67758;BMP180;54562;47.620;18.786;2022-09-13T02:01:33;98363.80;;;10.50
67758;BMP180;54562;47.620;18.786;2022-09-13T02:04:47;98363.60;;;10.50
67758;BMP180;54562;47.620;18.786;2022-09-13T02:08:02;98363.80;;;10.50
67758;BMP180;54562;47.620;18.786;2022-09-13T02:11:15;98359.80;;;10.54
67758;BMP180;54562;47.620;18.786;2022-09-13T02:14:33;98358.20;;;10.50
67758;BMP180;54562;47.620;18.786;2022-09-13T02:17:47;98354.00;;;10.50
67758;BMP180;54562;47.620;18.786;2022-09-13T02:21:02;98352.40;;;10.40
67758;BMP180;54562;47.620;18.786;2022-09-13T02:24:20;98354.20;;;10.36
67758;BMP180;54562;47.620;18.786;2022-09-13T02:27:34;98354.60;;;10.30
67758;BMP180;54562;47.620;18.786;2022-09-13T02:30:48;98350.80;;;10.20
67758;BMP180;54562;47.620;18.786;2022-09-13T02:34:04;98351.20;;;10.20
67758;BMP180;54562;47.620;18.786;2022-09-13T02:37:16;98346.20;;;10.20
67758;BMP180;54562;47.620;18.786;2022-09-13T02:40:31;98350.00;;;10.10
67758;BMP180;54562;47.620;18.786;2022-09-13T02:43:47;98348.20;;;10.10
67758;BMP180;54562;47.620;18.786;2022-09-13T02:47:13;98344.00;;;10.00
67758;BMP180;54562;47.620;18.786;2022-09-13T02:50:40;98344.00;;;9.94
67758;BMP180;54562;47.620;18.786;2022-09-13T02:53:57;98334.00;;;9.90
67758;BMP180;54562;47.620;18.786;2022-09-13T02:57:16;98331.20;;;9.90
67758;BMP180;54562;47.620;18.786;2022-09-13T03:00:26;98335.40;;;9.90
67758;BMP180;54562;47.620;18.786;2022-09-13T03:03:35;98332.80;;;9.84
67758;BMP180;54562;47.620;18.786;2022-09-13T03:06:43;98331.00;;;9.80
67758;BMP180;54562;47.620;18.786;2022-09-13T03:09:57;98324.80;;;9.80
67758;BMP180;54562;47.620;18.786;2022-09-13T03:13:33;98325.40;;;9.80
67758;BMP180;54562;47.620;18.786;2022-09-13T03:17:03;98324.80;;;9.80
67758;BMP180;54562;47.620;18.786;2022-09-13T03:20:17;98325.40;;;9.70
67758;BMP180;54562;47.620;18.786;2022-09-13T03:23:46;98325.00;;;9.60
67758;BMP180;54562;47.620;18.786;2022-09-13T03:27:14;98321.20;;;9.60
67758;BMP180;54562;47.620;18.786;2022-09-13T03:30:25;98313.40;;;9.50
67758;BMP180;54562;47.620;18.786;2022-09-13T03:33:45;98315.00;;;9.50
67758;BMP180;54562;47.620;18.786;2022-09-13T03:36:55;98312.00;;;9.50
67758;BMP180;54562;47.620;18.786;2022-09-13T03:40:11;98307.00;;;9.44
67758;BMP180;54562;47.620;18.786;2022-09-13T03:43:25;98307.60;;;9.40
67758;BMP180;54562;47.620;18.786;2022-09-13T03:46:40;98301.20;;;9.50
67758;BMP180;54562;47.620;18.786;2022-09-13T03:49:51;98298.80;;;9.50
67758;BMP180;54562;47.620;18.786;2022-09-13T03:53:05;98308.80;;;9.56
67758;BMP180;54562;47.620;18.786;2022-09-13T03:56:19;98304.60;;;9.60
67758;BMP180;54562;47.620;18.786;2022-09-13T03:59:27;98302.00;;;9.60
67758;BMP180;54562;47.620;18.786;2022-09-13T04:02:36;98302.60;;;9.64
67758;BMP180;54562;47.620;18.786;2022-09-13T04:05:44;98306.20;;;9.70
67758;BMP180;54562;47.620;18.786;2022-09-13T04:08:52;98305.20;;;9.70
67758;BMP180;54562;47.620;18.786;2022-09-13T04:12:00;98305.80;;;9.70
67758;BMP180;54562;47.620;18.786;2022-09-13T04:15:10;98307.00;;;9.70
67758;BMP180;54562;47.620;18.786;2022-09-13T04:18:19;98307.20;;;9.72
67758;BMP180;54562;47.620;18.786;2022-09-13T04:21:27;98305.60;;;9.70
67758;BMP180;54562;47.620;18.786;2022-09-13T04:24:35;98310.40;;;9.70
67758;BMP180;54562;47.620;18.786;2022-09-13T04:27:44;98311.60;;;9.70
67758;BMP180;54562;47.620;18.786;2022-09-13T04:30:52;98311.40;;;9.70
67758;BMP180;54562;47.620;18.786;2022-09-13T04:34:00;98310.00;;;9.70
67758;BMP180;54562;47.620;18.786;2022-09-13T04:37:09;98309.60;;;9.70
67758;BMP180;54562;47.620;18.786;2022-09-13T04:40:18;98308.80;;;9.68
67758;BMP180;54562;47.620;18.786;2022-09-13T04:43:27;98314.00;;;9.60
67758;BMP180;54562;47.620;18.786;2022-09-13T04:46:35;98308.40;;;9.60
67758;BMP180;54562;47.620;18.786;2022-09-13T04:49:43;98312.60;;;9.60
67758;BMP180;54562;47.620;18.786;2022-09-13T04:52:54;98312.20;;;9.58
67758;BMP180;54562;47.620;18.786;2022-09-13T04:56:05;98316.00;;;9.50
67758;BMP180;54562;47.620;18.786;2022-09-13T04:59:13;98312.20;;;9.50
67758;BMP180;54562;47.620;18.786;2022-09-13T05:02:22;98315.00;;;9.50
67758;BMP180;54562;47.620;18.786;2022-09-13T05:05:30;98324.20;;;9.60
67758;BMP180;54562;47.620;18.786;2022-09-13T05:08:39;98324.00;;;9.70
67758;BMP180;54562;47.620;18.786;2022-09-13T05:11:47;98319.80;;;9.84
67758;BMP180;54562;47.620;18.786;2022-09-13T05:14:55;98326.20;;;10.10
67758;BMP180;54562;47.620;18.786;2022-09-13T05:18:04;98326.40;;;10.30
67758;BMP180;54562;47.620;18.786;2022-09-13T05:21:12;98325.80;;;10.50
67758;BMP180;54562;47.620;18.786;2022-09-13T05:24:20;98329.40;;;10.72
67758;BMP180;54562;47.620;18.786;2022-09-13T05:27:28;98323.80;;;10.92
67758;BMP180;54562;47.620;18.786;2022-09-13T05:30:36;98327.60;;;11.10
67758;BMP180;54562;47.620;18.786;2022-09-13T05:33:54;98324.80;;;11.30
67758;BMP180;54562;47.620;18.786;2022-09-13T05:37:02;98325.20;;;11.50
67758;BMP180;54562;47.620;18.786;2022-09-13T05:40:11;98319.80;;;11.62
67758;BMP180;54562;47.620;18.786;2022-09-13T05:43:19;98325.00;;;11.80
67758;BMP180;54562;47.620;18.786;2022-09-13T05:46:27;98324.60;;;12.00
67758;BMP180;54562;47.620;18.786;2022-09-13T05:49:35;98330.40;;;12.20
67758;BMP180;54562;47.620;18.786;2022-09-13T05:53:03;98332.20;;;12.30
67758;BMP180;54562;47.620;18.786;2022-09-13T05:56:14;98332.20;;;12.40
67758;BMP180;54562;47.620;18.786;2022-09-13T05:59:22;98334.60;;;12.50
67758;BMP180;54562;47.620;18.786;2022-09-13T06:02:31;98331.00;;;12.62
67758;BMP180;54562;47.620;18.786;2022-09-13T06:05:39;98337.00;;;12.70
67758;BMP180;54562;47.620;18.786;2022-09-13T06:08:50;98339.80;;;12.90
67758;BMP180;54562;47.620;18.786;2022-09-13T06:11:59;98341.20;;;13.00
67758;BMP180;54562;47.620;18.786;2022-09-13T06:15:09;98339.60;;;13.10
67758;BMP180;54562;47.620;18.786;2022-09-13T06:18:17;98335.00;;;13.20
67758;BMP180;54562;47.620;18.786;2022-09-13T06:21:25;98333.60;;;13.30
67758;BMP180;54562;47.620;18.786;2022-09-13T06:24:35;98337.60;;;13.40
67758;BMP180;54562;47.620;18.786;2022-09-13T06:27:44;98341.40;;;13.60
67758;BMP180;54562;47.620;18.786;2022-09-13T06:31:02;98336.60;;;13.70
67758;BMP180;54562;47.620;18.786;2022-09-13T06:34:13;98338.20;;;13.84
67758;BMP180;54562;47.620;18.786;2022-09-13T06:37:23;98340.40;;;14.00
67758;BMP180;54562;47.620;18.786;2022-09-13T06:40:30;98330.40;;;14.24
67758;BMP180;54562;47.620;18.786;2022-09-13T06:43:39;98333.80;;;14.40
67758;BMP180;54562;47.620;18.786;2022-09-13T06:46:47;98336.40;;;14.56
67758;BMP180;54562;47.620;18.786;2022-09-13T06:49:55;98337.00;;;14.72
67758;BMP180;54562;47.620;18.786;2022-09-13T06:53:04;98334.60;;;14.90
67758;BMP180;54562;47.620;18.786;2022-09-13T06:56:14;98339.40;;;15.06
67758;BMP180;54562;47.620;18.786;2022-09-13T06:59:23;98339.20;;;15.20
67758;BMP180;54562;47.620;18.786;2022-09-13T07:02:31;98345.60;;;15.30
67758;BMP180;54562;47.620;18.786;2022-09-13T07:05:39;98347.00;;;15.40
67758;BMP180;54562;47.620;18.786;2022-09-13T07:08:49;98340.80;;;15.60
67758;BMP180;54562;47.620;18.786;2022-09-13T07:11:56;98343.80;;;15.70
67758;BMP180;54562;47.620;18.786;2022-09-13T07:15:05;98343.20;;;15.80
67758;BMP180;54562;47.620;18.786;2022-09-13T07:18:13;98343.00;;;15.90
67758;BMP180;54562;47.620;18.786;2022-09-13T07:21:22;98348.80;;;16.00
67758;BMP180;54562;47.620;18.786;2022-09-13T07:24:30;98355.80;;;16.10
67758;BMP180;54562;47.620;18.786;2022-09-13T07:27:38;98349.60;;;16.24
67758;BMP180;54562;47.620;18.786;2022-09-13T07:30:47;98360.20;;;16.40
67758;BMP180;54562;47.620;18.786;2022-09-13T07:33:58;98356.60;;;16.50
67758;BMP180;54562;47.620;18.786;2022-09-13T07:37:06;98353.80;;;16.60
67758;BMP180;54562;47.620;18.786;2022-09-13T07:40:15;98355.00;;;16.70
67758;BMP180;54562;47.620;18.786;2022-09-13T07:43:23;98359.00;;;16.88
67758;BMP180;54562;47.620;18.786;2022-09-13T07:46:33;98354.60;;;16.96
67758;BMP180;54562;47.620;18.786;2022-09-13T07:49:45;98354.80;;;17.10
67758;BMP180;54562;47.620;18.786;2022-09-13T07:52:53;98356.40;;;17.20
67758;BMP180;54562;47.620;18.786;2022-09-13T07:56:08;98350.00;;;17.20
67758;BMP180;54562;47.620;18.786;2022-09-13T07:59:17;98355.80;;;17.34
67758;BMP180;54562;47.620;18.786;2022-09-13T08:02:25;98353.20;;;17.40
67758;BMP180;54562;47.620;18.786;2022-09-13T08:05:39;98345.60;;;17.50
67758;BMP180;54562;47.620;18.786;2022-09-13T08:08:47;98356.00;;;17.60
67758;BMP180;54562;47.620;18.786;2022-09-13T08:11:55;98362.60;;;17.80
67758;BMP180;54562;47.620;18.786;2022-09-13T08:15:04;98360.00;;;17.84
67758;BMP180;54562;47.620;18.786;2022-09-13T08:18:13;98356.20;;;17.82
67758;BMP180;54562;47.620;18.786;2022-09-13T08:21:22;98360.20;;;17.80
67758;BMP180;54562;47.620;18.786;2022-09-13T08:24:30;98360.20;;;17.90
67758;BMP180;54562;47.620;18.786;2022-09-13T08:27:38;98353.80;;;17.90
67758;BMP180;54562;47.620;18.786;2022-09-13T08:30:47;98356.00;;;18.00
67758;BMP180;54562;47.620;18.786;2022-09-13T08:33:54;98358.40;;;18.00
67758;BMP180;54562;47.620;18.786;2022-09-13T08:37:03;98351.40;;;18.00
67758;BMP180;54562;47.620;18.786;2022-09-13T08:40:12;98354.60;;;18.00
67758;BMP180;54562;47.620;18.786;2022-09-13T08:43:33;98354.60;;;18.10
67758;BMP180;54562;47.620;18.786;2022-09-13T08:46:46;98348.20;;;18.30
67758;BMP180;54562;47.620;18.786;2022-09-13T08:50:11;98350.40;;;18.32
67758;BMP180;54562;47.620;18.786;2022-09-13T08:53:25;98351.80;;;18.40
67758;BMP180;54562;47.620;18.786;2022-09-13T08:56:43;98351.60;;;18.50
67758;BMP180;54562;47.620;18.786;2022-09-13T09:00:02;98354.80;;;18.60
67758;BMP180;54562;47.620;18.786;2022-09-13T09:03:27;98358.60;;;18.70
67758;BMP180;54562;47.620;18.786;2022-09-13T09:06:39;98349.80;;;18.80
67758;BMP180;54562;47.620;18.786;2022-09-13T09:09:55;98347.40;;;18.90
67758;BMP180;54562;47.620;18.786;2022-09-13T09:13:12;98346.20;;;19.00
67758;BMP180;54562;47.620;18.786;2022-09-13T09:16:38;98340.20;;;19.10
67758;BMP180;54562;47.620;18.786;2022-09-13T09:19:51;98339.00;;;19.30
67758;BMP180;54562;47.620;18.786;2022-09-13T09:23:04;98344.60;;;19.50
67758;BMP180;54562;47.620;18.786;2022-09-13T09:26:23;98344.00;;;19.60
67758;BMP180;54562;47.620;18.786;2022-09-13T09:29:34;98339.60;;;19.70
67758;BMP180;54562;47.620;18.786;2022-09-13T09:33:05;98329.00;;;19.90
67758;BMP180;54562;47.620;18.786;2022-09-13T09:36:25;98335.00;;;20.00
67758;BMP180;54562;47.620;18.786;2022-09-13T09:39:36;98334.00;;;20.10
67758;BMP180;54562;47.620;18.786;2022-09-13T09:42:48;98331.40;;;20.10
67758;BMP180;54562;47.620;18.786;2022-09-13T09:45:58;98323.00;;;20.20
67758;BMP180;54562;47.620;18.786;2022-09-13T09:49:17;98322.20;;;20.40
67758;BMP180;54562;47.620;18.786;2022-09-13T09:52:51;98315.20;;;20.40
67758;BMP180;54562;47.620;18.786;2022-09-13T09:56:11;98309.00;;;20.50
67758;BMP180;54562;47.620;18.786;2022-09-13T09:59:29;98306.80;;;20.60
67758;BMP180;54562;47.620;18.786;2022-09-13T10:02:43;98300.20;;;20.74
67758;BMP180;54562;47.620;18.786;2022-09-13T10:06:05;98300.20;;;20.76
67758;BMP180;54562;47.620;18.786;2022-09-13T10:09:20;98296.40;;;20.70
67758;BMP180;54562;47.620;18.786;2022-09-13T10:12:35;98296.40;;;20.80
67758;BMP180;54562;47.620;18.786;2022-09-13T10:15:55;98291.40;;;20.82
67758;BMP180;54562;47.620;18.786;2022-09-13T10:19:26;98288.20;;;21.00
67758;BMP180;54562;47.620;18.786;2022-09-13T10:22:35;98285.80;;;21.30
67758;BMP180;54562;47.620;18.786;2022-09-13T10:25:53;98280.80;;;21.54
67758;BMP180;54562;47.620;18.786;2022-09-13T10:29:09;98273.80;;;21.70
67758;BMP180;54562;47.620;18.786;2022-09-13T10:32:19;98276.00;;;21.94
67758;BMP180;54562;47.620;18.786;2022-09-13T10:35:29;98281.60;;;22.20
67758;BMP180;54562;47.620;18.786;2022-09-13T10:38:40;98285.40;;;22.20
67758;BMP180;54562;47.620;18.786;2022-09-13T10:41:56;98283.00;;;22.00
67758;BMP180;54562;47.620;18.786;2022-09-13T10:45:08;98279.20;;;21.90
67758;BMP180;54562;47.620;18.786;2022-09-13T10:48:26;98286.40;;;21.98
67758;BMP180;54562;47.620;18.786;2022-09-13T10:51:36;98285.60;;;22.00
67758;BMP180;54562;47.620;18.786;2022-09-13T10:54:44;98276.80;;;22.10
67758;BMP180;54562;47.620;18.786;2022-09-13T10:57:53;98282.20;;;22.00
67758;BMP180;54562;47.620;18.786;2022-09-13T11:01:24;98277.60;;;21.82
67758;BMP180;54562;47.620;18.786;2022-09-13T11:05:15;98276.60;;;21.90
67758;BMP180;54562;47.620;18.786;2022-09-13T11:08:33;98278.20;;;22.20
67758;BMP180;54562;47.620;18.786;2022-09-13T11:11:54;98289.40;;;22.30
67758;BMP180;54562;47.620;18.786;2022-09-13T11:15:16;98280.80;;;22.30
67758;BMP180;54562;47.620;18.786;2022-09-13T11:18:51;98277.00;;;22.20
67758;BMP180;54562;47.620;18.786;2022-09-13T11:22:23;98269.40;;;22.28
67758;BMP180;54562;47.620;18.786;2022-09-13T11:25:50;98266.20;;;22.10
67758;BMP180;54562;47.620;18.786;2022-09-13T11:29:12;98257.40;;;22.20
67758;BMP180;54562;47.620;18.786;2022-09-13T11:32:38;98258.60;;;22.30
67758;BMP180;54562;47.620;18.786;2022-09-13T11:36:16;98250.60;;;22.40
67758;BMP180;54562;47.620;18.786;2022-09-13T11:39:38;98247.80;;;22.68
67758;BMP180;54562;47.620;18.786;2022-09-13T11:43:07;98244.20;;;22.90
67758;BMP180;54562;47.620;18.786;2022-09-13T11:46:32;98242.00;;;23.00
67758;BMP180;54562;47.620;18.786;2022-09-13T11:53:35;98237.40;;;23.18
67758;BMP180;54562;47.620;18.786;2022-09-13T11:56:51;98242.40;;;23.00
67758;BMP180;54562;47.620;18.786;2022-09-13T12:00:08;98238.40;;;23.20
67758;BMP180;54562;47.620;18.786;2022-09-13T12:03:27;98233.00;;;23.30
67758;BMP180;54562;47.620;18.786;2022-09-13T12:06:43;98231.40;;;23.40
67758;BMP180;54562;47.620;18.786;2022-09-13T12:10:01;98226.20;;;23.60
67758;BMP180;54562;47.620;18.786;2022-09-13T12:13:17;98229.00;;;23.70
67758;BMP180;54562;47.620;18.786;2022-09-13T12:16:32;98225.80;;;23.90
67758;BMP180;54562;47.620;18.786;2022-09-13T12:19:46;98223.80;;;24.10
67758;BMP180;54562;47.620;18.786;2022-09-13T12:22:58;98226.40;;;24.10
67758;BMP180;54562;47.620;18.786;2022-09-13T12:26:17;98224.80;;;23.90
67758;BMP180;54562;47.620;18.786;2022-09-13T12:29:33;98216.00;;;23.68
67758;BMP180;54562;47.620;18.786;2022-09-13T12:32:44;98211.80;;;23.40
67758;BMP180;54562;47.620;18.786;2022-09-13T12:40:06;98213.80;;;23.50
67758;BMP180;54562;47.620;18.786;2022-09-13T12:43:48;98210.60;;;23.50
67758;BMP180;54562;47.620;18.786;2022-09-13T12:47:51;98211.60;;;23.48
67758;BMP180;54562;47.620;18.786;2022-09-13T12:51:29;98208.20;;;23.40
67758;BMP180;54562;47.620;18.786;2022-09-13T12:55:02;98205.00;;;23.50
67758;BMP180;54562;47.620;18.786;2022-09-13T12:58:51;98213.00;;;23.60
67758;BMP180;54562;47.620;18.786;2022-09-13T13:02:18;98205.80;;;23.44
67758;BMP180;54562;47.620;18.786;2022-09-13T13:05:32;98206.20;;;23.28
67758;BMP180;54562;47.620;18.786;2022-09-13T13:08:49;98199.40;;;23.48
67758;BMP180;54562;47.620;18.786;2022-09-13T13:11:59;98203.00;;;23.70
67758;BMP180;54562;47.620;18.786;2022-09-13T13:18:57;98187.60;;;23.24
67758;BMP180;54562;47.620;18.786;2022-09-13T13:22:49;98188.20;;;23.44
67758;BMP180;54562;47.620;18.786;2022-09-13T13:26:46;98186.40;;;23.80
67758;BMP180;54562;47.620;18.786;2022-09-13T13:30:51;98187.40;;;23.80
67758;BMP180;54562;47.620;18.786;2022-09-13T13:34:30;98175.00;;;24.00
67758;BMP180;54562;47.620;18.786;2022-09-13T13:37:40;98172.40;;;24.30
67758;BMP180;54562;47.620;18.786;2022-09-13T13:40:50;98177.80;;;24.62
67758;BMP180;54562;47.620;18.786;2022-09-13T13:43:59;98180.80;;;24.80
67758;BMP180;54562;47.620;18.786;2022-09-13T13:47:50;98177.00;;;24.94
67758;BMP180;54562;47.620;18.786;2022-09-13T13:51:29;98182.20;;;25.16
67758;BMP180;54562;47.620;18.786;2022-09-13T13:55:01;98176.80;;;25.30
67758;BMP180;54562;47.620;18.786;2022-09-13T13:58:28;98169.40;;;25.38
67758;BMP180;54562;47.620;18.786;2022-09-13T14:01:45;98162.40;;;25.30
67758;BMP180;54562;47.620;18.786;2022-09-13T14:05:15;98168.40;;;25.30
67758;BMP180;54562;47.620;18.786;2022-09-13T14:08:41;98170.40;;;25.40
67758;BMP180;54562;47.620;18.786;2022-09-13T14:12:07;98164.00;;;25.50
67758;BMP180;54562;47.620;18.786;2022-09-13T14:15:47;98155.60;;;25.50
67758;BMP180;54562;47.620;18.786;2022-09-13T14:19:18;98155.40;;;25.60
67758;BMP180;54562;47.620;18.786;2022-09-13T14:22:36;98149.40;;;25.70
67758;BMP180;54562;47.620;18.786;2022-09-13T14:25:45;98150.20;;;25.60
67758;BMP180;54562;47.620;18.786;2022-09-13T14:28:53;98141.00;;;25.60
67758;BMP180;54562;47.620;18.786;2022-09-13T14:32:10;98139.60;;;25.50
67758;BMP180;54562;47.620;18.786;2022-09-13T14:35:31;98135.40;;;25.48
67758;BMP180;54562;47.620;18.786;2022-09-13T14:38:48;98135.60;;;25.40
67758;BMP180;54562;47.620;18.786;2022-09-13T14:42:12;98131.60;;;25.32
67758;BMP180;54562;47.620;18.786;2022-09-13T14:45:25;98133.00;;;25.20
67758;BMP180;54562;47.620;18.786;2022-09-13T14:48:38;98130.80;;;25.10
67758;BMP180;54562;47.620;18.786;2022-09-13T14:51:53;98131.00;;;24.92
67758;BMP180;54562;47.620;18.786;2022-09-13T14:55:10;98129.80;;;24.78
67758;BMP180;54562;47.620;18.786;2022-09-13T14:58:25;98132.40;;;24.50
67758;BMP180;54562;47.620;18.786;2022-09-13T15:01:36;98135.40;;;24.30
67758;BMP180;54562;47.620;18.786;2022-09-13T15:04:49;98131.00;;;24.00
67758;BMP180;54562;47.620;18.786;2022-09-13T15:07:57;98121.60;;;23.76
67758;BMP180;54562;47.620;18.786;2022-09-13T15:11:11;98120.60;;;23.46
67758;BMP180;54562;47.620;18.786;2022-09-13T15:14:30;98122.40;;;23.20
67758;BMP180;54562;47.620;18.786;2022-09-13T15:17:55;98114.20;;;23.00
67758;BMP180;54562;47.620;18.786;2022-09-13T15:21:05;98108.80;;;22.80
67758;BMP180;54562;47.620;18.786;2022-09-13T15:24:29;98104.60;;;22.70
67758;BMP180;54562;47.620;18.786;2022-09-13T15:27:48;98096.20;;;22.50
67758;BMP180;54562;47.620;18.786;2022-09-13T15:30:59;98096.20;;;22.40
67758;BMP180;54562;47.620;18.786;2022-09-13T15:34:23;98095.60;;;22.30
67758;BMP180;54562;47.620;18.786;2022-09-13T15:37:37;98099.20;;;22.14
67758;BMP180;54562;47.620;18.786;2022-09-13T15:40:56;98102.60;;;22.04
67758;BMP180;54562;47.620;18.786;2022-09-13T15:44:07;98102.20;;;21.90
67758;BMP180;54562;47.620;18.786;2022-09-13T15:47:19;98093.40;;;21.80
67758;BMP180;54562;47.620;18.786;2022-09-13T15:50:29;98092.40;;;21.70
67758;BMP180;54562;47.620;18.786;2022-09-13T15:53:45;98087.40;;;21.60
67758;BMP180;54562;47.620;18.786;2022-09-13T15:56:54;98084.60;;;21.40
67758;BMP180;54562;47.620;18.786;2022-09-13T16:00:06;98087.60;;;21.30
67758;BMP180;54562;47.620;18.786;2022-09-13T16:03:14;98081.80;;;21.30
67758;BMP180;54562;47.620;18.786;2022-09-13T16:06:23;98072.80;;;21.20
67758;BMP180;54562;47.620;18.786;2022-09-13T16:09:32;98068.40;;;21.10
67758;BMP180;54562;47.620;18.786;2022-09-13T16:12:41;98065.40;;;21.10
67758;BMP180;54562;47.620;18.786;2022-09-13T16:15:49;98065.40;;;21.00
67758;BMP180;54562;47.620;18.786;2022-09-13T16:19:03;98063.80;;;20.90
67758;BMP180;54562;47.620;18.786;2022-09-13T16:22:11;98063.00;;;20.80
67758;BMP180;54562;47.620;18.786;2022-09-13T16:25:19;98067.80;;;20.80
67758;BMP180;54562;47.620;18.786;2022-09-13T16:28:28;98068.80;;;20.70
67758;BMP180;54562;47.620;18.786;2022-09-13T16:31:36;98065.60;;;20.60
67758;BMP180;54562;47.620;18.786;2022-09-13T16:34:44;98064.60;;;20.60
67758;BMP180;54562;47.620;18.786;2022-09-13T16:37:53;98069.00;;;20.50
67758;BMP180;54562;47.620;18.786;2022-09-13T16:41:04;98070.20;;;20.42
67758;BMP180;54562;47.620;18.786;2022-09-13T16:44:12;98062.60;;;20.40
67758;BMP180;54562;47.620;18.786;2022-09-13T16:47:21;98061.80;;;20.30
67758;BMP180;54562;47.620;18.786;2022-09-13T16:50:29;98064.80;;;20.20
67758;BMP180;54562;47.620;18.786;2022-09-13T16:53:43;98071.00;;;20.10
67758;BMP180;54562;47.620;18.786;2022-09-13T16:56:51;98063.60;;;20.00
67758;BMP180;54562;47.620;18.786;2022-09-13T16:59:59;98075.60;;;19.90
67758;BMP180;54562;47.620;18.786;2022-09-13T17:03:09;98076.40;;;19.78
67758;BMP180;54562;47.620;18.786;2022-09-13T17:06:20;98074.00;;;19.60
67758;BMP180;54562;47.620;18.786;2022-09-13T17:09:28;98074.40;;;19.50
67758;BMP180;54562;47.620;18.786;2022-09-13T17:12:36;98072.40;;;19.40
67758;BMP180;54562;47.620;18.786;2022-09-13T17:15:45;98070.60;;;19.28
67758;BMP180;54562;47.620;18.786;2022-09-13T17:18:53;98066.80;;;19.10
67758;BMP180;54562;47.620;18.786;2022-09-13T17:22:05;98073.20;;;19.00
67758;BMP180;54562;47.620;18.786;2022-09-13T17:25:15;98072.80;;;18.90
67758;BMP180;54562;47.620;18.786;2022-09-13T17:28:26;98069.00;;;18.70
67758;BMP180;54562;47.620;18.786;2022-09-13T17:31:34;98073.40;;;18.60
67758;BMP180;54562;47.620;18.786;2022-09-13T17:34:42;98065.20;;;18.46
67758;BMP180;54562;47.620;18.786;2022-09-13T17:37:50;98067.00;;;18.40
67758;BMP180;54562;47.620;18.786;2022-09-13T17:41:03;98066.40;;;18.30
67758;BMP180;54562;47.620;18.786;2022-09-13T17:44:12;98065.40;;;18.20
67758;BMP180;54562;47.620;18.786;2022-09-13T17:47:22;98055.40;;;18.16
67758;BMP180;54562;47.620;18.786;2022-09-13T17:50:30;98058.00;;;18.10
67758;BMP180;54562;47.620;18.786;2022-09-13T17:53:42;98065.60;;;18.10
67758;BMP180;54562;47.620;18.786;2022-09-13T17:56:52;98069.40;;;18.10
67758;BMP180;54562;47.620;18.786;2022-09-13T18:00:00;98065.20;;;18.04
67758;BMP180;54562;47.620;18.786;2022-09-13T18:03:09;98066.20;;;18.00
67758;BMP180;54562;47.620;18.786;2022-09-13T18:06:17;98063.80;;;18.00
67758;BMP180;54562;47.620;18.786;2022-09-13T18:09:25;98067.40;;;18.00
67758;BMP180;54562;47.620;18.786;2022-09-13T18:12:34;98068.80;;;18.00
67758;BMP180;54562;47.620;18.786;2022-09-13T18:15:42;98081.40;;;18.00
67758;BMP180;54562;47.620;18.786;2022-09-13T18:18:53;98076.00;;;18.00
67758;BMP180;54562;47.620;18.786;2022-09-13T18:22:00;98080.40;;;17.90
67758;BMP180;54562;47.620;18.786;2022-09-13T18:25:09;98076.80;;;17.90
67758;BMP180;54562;47.620;18.786;2022-09-13T18:28:18;98078.80;;;17.82
67758;BMP180;54562;47.620;18.786;2022-09-13T18:31:26;98088.40;;;17.80
67758;BMP180;54562;47.620;18.786;2022-09-13T18:34:35;98091.80;;;17.78
67758;BMP180;54562;47.620;18.786;2022-09-13T18:37:43;98098.00;;;17.70
67758;BMP180;54562;47.620;18.786;2022-09-13T18:41:01;98095.20;;;17.70